Time;durP1;ratioP1;P1;durP2;ratioP2;P2;SDS_P1;SDS_P2;PMS_P1;PMS_P2;Temp;Humidity;BMP_temperature;BMP_pressure;BME280_temperature;BME280_humidity;BME280_pressure;Samples;Min_cycle;Max_cycle;Signal;HPM_P1;HPM_P2
2022/10/05 00:02:21;;;;;;;9.68;5.68;;;;;;;-143.48;69.29;78531.75;5073806;28;20024;-40
2022/10/05 00:04:55;;;;;;;12.77;6.22;;;;;;;-143.48;69.37;78519.88;5073768;28;20024;-41
2022/10/05 00:07:22;;;;;;;11.20;6.10;;;;;;;-143.48;69.28;78535.72;5073898;28;20030;-40
2022/10/05 00:09:53;;;;;;;9.85;5.40;;;;;;;-143.48;69.20;78521.84;5072155;28;20081;-40
2022/10/05 00:12:20;;;;;;;12.05;5.80;;;;;;;-143.48;69.35;78535.72;5071812;28;20027;-41
2022/10/05 00:14:48;;;;;;;11.68;5.95;;;;;;;-143.48;69.46;78525.81;5071374;28;20058;-40
2022/10/05 00:17:22;;;;;;;9.20;5.63;;;;;;;-143.48;69.30;78523.81;5071380;28;20024;-40
2022/10/05 00:19:52;;;;;;;10.13;5.32;;;;;;;-143.48;69.65;78525.81;5071104;28;20032;-40
2022/10/05 00:22:23;;;;;;;10.05;5.55;;;;;;;-143.48;69.59;78527.78;5072219;28;20024;-40
2022/10/05 00:24:53;;;;;;;11.27;5.50;;;;;;;-143.48;69.65;78523.81;5073233;28;20082;-39
2022/10/05 00:27:21;;;;;;;9.32;5.53;;;;;;;-143.48;69.46;78517.88;5071312;28;20024;-38
2022/10/05 00:29:49;;;;;;;12.48;5.55;;;;;;;-143.48;69.45;78517.88;5072846;28;20589;-40
2022/10/05 00:32:15;;;;;;;9.75;5.75;;;;;;;-143.48;69.50;78511.94;5072829;28;20510;-40
2022/10/05 00:34:41;;;;;;;13.35;5.75;;;;;;;-143.48;69.54;78507.97;5071855;28;20052;-40
2022/10/05 00:37:07;;;;;;;9.50;5.10;;;;;;;-143.48;69.12;78505.97;5073572;28;20035;-40
2022/10/05 00:39:35;;;;;;;7.80;4.90;;;;;;;-143.48;68.96;78504.00;5073527;28;20033;-40
2022/10/05 00:42:12;;;;;;;8.95;4.75;;;;;;;-143.48;68.55;78500.03;5073718;28;20054;-40
2022/10/05 00:45:02;;;;;;;6.20;4.50;;;;;;;-143.48;68.03;78496.06;5073348;28;20040;-40
2022/10/05 00:48:01;;;;;;;8.75;4.90;;;;;;;-143.48;68.12;78500.03;5073457;28;20070;-41
2022/10/05 00:50:52;;;;;;;10.15;4.55;;;;;;;-143.48;68.14;78496.06;5073305;28;20074;-40
2022/10/05 00:53:33;;;;;;;11.05;4.30;;;;;;;-143.48;67.94;78500.03;5073615;28;20024;-40
2022/10/05 00:56:20;;;;;;;6.70;4.07;;;;;;;-143.48;67.92;78505.97;5073562;28;20097;-38
2022/10/05 00:59:11;;;;;;;6.75;4.05;;;;;;;-143.48;67.97;78500.03;5073578;28;20166;-40
2022/10/05 01:01:52;;;;;;;8.40;3.97;;;;;;;-143.48;68.03;78505.97;5073603;28;20028;-40
2022/10/05 01:04:32;;;;;;;10.63;4.35;;;;;;;-143.48;68.06;78498.03;5073804;28;20125;-40
2022/10/05 01:07:06;;;;;;;8.07;4.38;;;;;;;-143.48;67.90;78486.16;5073806;28;20032;-41
2022/10/05 01:10:09;;;;;;;5.80;4.00;;;;;;;-143.48;68.11;78492.09;5073549;28;20070;-40
2022/10/05 01:12:47;;;;;;;8.93;4.20;;;;;;;-143.48;68.35;78496.06;5072215;28;20050;-40
2022/10/05 01:15:21;;;;;;;6.82;4.35;;;;;;;-143.48;68.26;78488.13;5074331;28;20363;-41
2022/10/05 01:18:04;;;;;;;6.80;4.20;;;;;;;-143.48;68.38;78486.16;5077246;28;20036;-41
2022/10/05 01:20:54;;;;;;;6.47;3.90;;;;;;;-143.48;68.03;78484.16;5077280;28;20032;-40
2022/10/05 01:23:51;;;;;;;11.82;4.13;;;;;;;-143.48;68.09;78484.16;5077135;28;20017;-41
2022/10/05 01:26:33;;;;;;;8.75;3.50;;;;;;;-143.48;67.82;78478.22;5077324;28;20028;-41
2022/10/05 01:29:14;;;;;;;8.10;3.92;;;;;;;-143.48;67.83;78484.16;5076933;28;20020;-41
2022/10/05 01:32:13;;;;;;;10.05;4.15;;;;;;;-143.48;67.66;78478.22;5077313;28;20036;-41
2022/10/05 01:34:49;;;;;;;6.47;3.53;;;;;;;-143.48;67.52;78486.16;5077201;28;20062;-40
2022/10/05 01:37:43;;;;;;;6.80;3.70;;;;;;;-143.48;67.25;78486.16;5075622;28;20035;-45
2022/10/05 01:40:17;;;;;;;5.28;3.53;;;;;;;-143.48;66.89;78478.22;5077055;28;20039;-41
2022/10/05 01:43:04;;;;;;;7.43;3.65;;;;;;;-143.48;66.83;78470.28;5077077;28;20435;-41
2022/10/05 01:45:29;;;;;;;6.68;3.35;;;;;;;-143.48;66.93;78470.28;5076911;28;20479;-41
2022/10/05 01:47:58;;;;;;;6.37;3.63;;;;;;;-143.48;66.89;78472.25;5077063;28;20035;-41
2022/10/05 01:50:56;;;;;;;6.25;3.53;;;;;;;-143.48;67.31;78478.22;5076531;28;20275;-41
2022/10/05 01:54:04;;;;;;;7.47;3.90;;;;;;;-143.48;67.55;78490.13;5076787;28;20374;-41
2022/10/05 01:56:43;;;;;;;9.00;4.05;;;;;;;-143.48;67.54;78480.19;5076797;28;20044;-41
2022/10/05 01:59:15;;;;;;;6.10;4.18;;;;;;;-143.48;67.47;78470.28;5074848;28;20519;-41
2022/10/05 02:02:02;;;;;;;7.90;4.35;;;;;;;-143.48;67.29;78464.34;5076347;28;20032;-41
2022/10/05 02:04:38;;;;;;;7.57;4.07;;;;;;;-143.48;67.60;78460.38;5076218;28;20021;-41
2022/10/05 02:07:13;;;;;;;11.27;4.70;;;;;;;-143.48;67.74;78450.44;5075880;28;20024;-40
2022/10/05 02:09:45;;;;;;;10.40;4.60;;;;;;;-143.48;67.99;78454.41;5076596;28;20032;-41
2022/10/05 02:12:21;;;;;;;9.75;4.90;;;;;;;-143.48;68.33;78452.44;5076512;28;20356;-40
2022/10/05 02:14:49;;;;;;;10.50;4.60;;;;;;;-143.48;68.73;78454.41;5076503;28;20374;-41
2022/10/05 02:17:30;;;;;;;9.40;5.47;;;;;;;-143.48;69.20;78460.38;5076138;28;20082;-45
2022/10/05 02:20:04;;;;;;;10.00;5.10;;;;;;;-143.48;69.57;78472.25;5076681;28;20063;-40
2022/10/05 02:22:32;;;;;;;11.93;5.72;;;;;;;-143.48;70.10;78468.28;5076134;28;20032;-39
2022/10/05 02:25:01;;;;;;;9.05;5.10;;;;;;;-143.48;70.68;78478.22;5076144;28;20059;-38
2022/10/05 02:27:31;;;;;;;11.70;5.80;;;;;;;-143.48;70.66;78474.25;5076230;28;20082;-38
2022/10/05 02:30:01;;;;;;;10.32;5.85;;;;;;;-143.48;71.02;78488.13;5075251;28;20027;-35
2022/10/05 02:32:37;;;;;;;10.45;5.82;;;;;;;-143.48;71.39;78492.09;5075512;28;20028;-38
2022/10/05 02:35:11;;;;;;;13.32;6.90;;;;;;;-143.48;71.80;78490.13;5075741;28;20029;-35
2022/10/05 02:37:53;;;;;;;14.88;7.50;;;;;;;-143.48;72.02;78496.06;5075536;28;20028;-35
2022/10/05 02:40:30;;;;;;;16.30;7.90;;;;;;;-143.48;72.32;78500.03;5075933;28;20036;-35
2022/10/05 02:43:03;;;;;;;13.90;7.07;;;;;;;-143.48;72.45;78513.91;5075689;28;20029;-35
2022/10/05 02:45:37;;;;;;;13.00;7.03;;;;;;;-143.48;72.25;78504.00;5075762;28;20032;-34
2022/10/05 02:48:02;;;;;;;12.63;7.30;;;;;;;-143.48;72.77;78500.03;5075778;28;20020;-35
2022/10/05 02:51:02;;;;;;;13.88;7.55;;;;;;;-143.48;72.42;78515.91;5075554;28;20039;-35
2022/10/05 02:53:51;;;;;;;13.93;7.47;;;;;;;-143.48;72.62;78515.91;5075620;28;20531;-35
2022/10/05 02:56:30;;;;;;;13.85;6.97;;;;;;;-143.48;72.34;78500.03;5075218;28;20422;-35
2022/10/05 02:59:12;;;;;;;17.88;7.40;;;;;;;-143.48;72.55;78507.97;5075644;28;20083;-35
2022/10/05 03:01:48;;;;;;;12.95;6.72;;;;;;;-143.48;72.56;78507.97;5075891;28;20367;-35
2022/10/05 03:04:19;;;;;;;12.57;6.90;;;;;;;-143.48;72.69;78513.91;5075713;28;20070;-35
2022/10/05 03:07:00;;;;;;;11.93;6.63;;;;;;;-143.48;72.23;78504.00;5075538;28;20024;-36
2022/10/05 03:09:30;;;;;;;11.82;6.95;;;;;;;-143.48;72.34;78509.94;5075143;28;20161;-34
2022/10/05 03:12:20;;;;;;;12.70;7.35;;;;;;;-143.48;72.19;78513.91;5075589;28;20024;-37
2022/10/05 03:14:55;;;;;;;15.75;7.40;;;;;;;-143.48;72.48;78513.91;5075289;28;20031;-36
2022/10/05 03:17:44;;;;;;;14.52;6.70;;;;;;;-143.48;72.21;78496.06;5075558;28;20029;-35
2022/10/05 03:20:47;;;;;;;13.73;7.20;;;;;;;-143.48;72.01;78496.06;5075163;28;20024;-37
2022/10/05 03:24:03;;;;;;;9.68;6.95;;;;;;;-143.48;72.33;78502.00;5075131;28;20036;-35
2022/10/05 03:26:52;;;;;;;13.13;7.13;;;;;;;-143.48;72.38;78504.00;5040962;28;20144;-36
2022/10/05 03:29:28;;;;;;;12.52;7.20;;;;;;;-143.48;72.42;78500.03;5075272;28;20437;-36
2022/10/05 03:32:08;;;;;;;15.05;7.00;;;;;;;-143.48;72.19;78494.06;5074728;28;20028;-35
2022/10/05 03:34:36;;;;;;;15.90;7.40;;;;;;;-143.48;71.97;78482.19;5074969;28;20467;-36
2022/10/05 03:37:31;;;;;;;14.70;6.60;;;;;;;-143.48;72.10;78484.16;5074614;28;20446;-35
2022/10/05 03:40:06;;;;;;;17.33;7.32;;;;;;;-143.48;71.84;78490.13;5073905;28;20036;-35
2022/10/05 03:42:50;;;;;;;11.35;6.55;;;;;;;-143.48;71.60;78484.16;5075048;28;20025;-36
2022/10/05 03:45:33;;;;;;;11.25;6.70;;;;;;;-143.48;71.79;78482.19;5074621;28;20391;-35
2022/10/05 03:48:10;;;;;;;11.40;6.80;;;;;;;-143.48;71.69;78490.13;5074903;28;20028;-35
2022/10/05 03:50:50;;;;;;;11.63;6.95;;;;;;;-143.48;71.48;78488.13;5074326;28;20055;-36
2022/10/05 03:53:22;;;;;;;13.25;6.25;;;;;;;-143.48;71.08;78472.25;5074499;28;20028;-37
2022/10/05 03:56:04;;;;;;;11.63;6.00;;;;;;;-143.48;70.96;78480.19;5074329;28;20035;-35
2022/10/05 03:58:49;;;;;;;16.88;6.78;;;;;;;-143.48;70.73;78476.22;5074033;28;20463;-36
2022/10/05 04:01:18;;;;;;;11.02;6.13;;;;;;;-143.48;70.77;78460.38;5074110;28;20035;-36
2022/10/05 04:03:48;;;;;;;14.02;6.20;;;;;;;-143.48;70.57;78476.22;5074381;28;20027;-36
2022/10/05 04:06:23;;;;;;;13.13;6.07;;;;;;;-143.48;70.74;78468.28;5073979;28;20150;-36
2022/10/05 04:09:02;;;;;;;11.82;6.10;;;;;;;-143.48;70.47;78472.25;5074013;28;20048;-35
2022/10/05 04:11:38;;;;;;;16.25;6.07;;;;;;;-143.48;70.07;78466.31;5074268;28;20063;-37
2022/10/05 04:14:17;;;;;;;10.63;5.88;;;;;;;-143.48;70.04;78472.25;5073799;28;20027;-36
2022/10/05 04:16:50;;;;;;;11.55;6.10;;;;;;;-143.48;69.51;78456.41;5073907;28;20020;-36
2022/10/05 04:19:23;;;;;;;11.13;5.85;;;;;;;-143.48;69.29;78466.31;5073848;28;20056;-36
2022/10/05 04:21:55;;;;;;;11.68;6.22;;;;;;;-143.48;69.16;78458.38;5074372;28;20029;-37
2022/10/05 04:24:31;;;;;;;12.75;5.68;;;;;;;-143.48;69.24;78454.41;5073617;28;20024;-37
2022/10/05 04:26:59;;;;;;;10.00;5.78;;;;;;;-143.48;69.12;78452.44;5074340;28;20474;-35
2022/10/05 04:29:36;;;;;;;12.05;5.20;;;;;;;-143.48;68.33;78448.47;5073932;28;20044;-36
2022/10/05 04:32:16;;;;;;;11.60;5.38;;;;;;;-143.48;68.56;78450.44;5073945;28;20039;-36
2022/10/05 04:35:08;;;;;;;9.75;5.28;;;;;;;-143.48;68.09;78442.50;5073885;28;20021;-37
2022/10/05 04:38:15;;;;;;;11.48;5.35;;;;;;;-143.48;67.99;78440.53;5037510;28;20040;-36
2022/10/05 04:40:59;;;;;;;10.35;5.22;;;;;;;-143.48;68.03;78432.59;5073496;28;20028;-36
2022/10/05 04:43:55;;;;;;;7.45;5.22;;;;;;;-143.48;67.65;78426.66;5073826;28;20032;-38
2022/10/05 04:46:32;;;;;;;10.77;4.93;;;;;;;-143.48;67.42;78426.66;5073933;28;20545;-36
2022/10/05 04:49:06;;;;;;;10.52;4.95;;;;;;;-143.48;67.29;78430.63;5073346;28;20051;-35
2022/10/05 04:52:08;;;;;;;10.13;5.38;;;;;;;-143.48;67.22;78418.72;5073707;28;20441;-35
2022/10/05 04:54:43;;;;;;;9.68;4.90;;;;;;;-143.48;66.94;78410.78;5073635;28;20020;-36
2022/10/05 04:57:22;;;;;;;8.60;4.38;;;;;;;-143.48;66.75;78420.69;5073596;28;20029;-36
2022/10/05 05:00:04;;;;;;;6.90;4.10;;;;;;;-143.48;66.21;78416.72;5068566;28;20061;-35
2022/10/05 05:02:43;;;;;;;9.25;4.03;;;;;;;-143.48;66.30;78412.75;5053172;28;20063;-36
2022/10/05 05:05:33;;;;;;;6.90;3.90;;;;;;;-143.48;66.09;78408.81;5053447;28;20037;-36
2022/10/05 05:08:18;;;;;;;6.70;3.97;;;;;;;-143.48;65.85;78406.81;5053715;28;20032;-39
2022/10/05 05:11:05;;;;;;;6.10;3.80;;;;;;;-143.48;66.02;78404.84;5053399;28;20507;-36
2022/10/05 05:13:31;;;;;;;5.38;3.42;;;;;;;-143.48;66.03;78400.88;5053350;28;20024;-36
2022/10/05 05:16:33;;;;;;;4.22;3.40;;;;;;;-143.48;65.60;78406.81;5052395;28;20027;-36
2022/10/05 05:19:09;;;;;;;9.10;3.17;;;;;;;-143.48;65.42;78410.78;5053414;28;20375;-36
2022/10/05 05:21:34;;;;;;;3.97;2.80;;;;;;;-143.48;65.40;78408.81;5053436;28;20025;-35
2022/10/05 05:24:19;;;;;;;6.97;2.83;;;;;;;-143.48;65.16;78400.88;5053139;28;20391;-35
2022/10/05 05:27:08;;;;;;;4.75;2.75;;;;;;;-143.48;65.02;78412.75;5053398;28;20131;-37
2022/10/05 05:29:48;;;;;;;4.18;2.63;;;;;;;-143.48;64.84;78406.81;5052877;28;20029;-36
2022/10/05 05:32:35;;;;;;;6.70;2.50;;;;;;;-143.48;64.78;78408.81;5052938;28;20029;-36
2022/10/05 05:35:13;;;;;;;4.20;2.53;;;;;;;-143.48;64.46;78394.91;5053041;28;20528;-37
2022/10/05 05:38:24;;;;;;;3.85;2.30;;;;;;;-143.48;64.50;78400.88;5053266;28;20036;-35
2022/10/05 05:41:25;;;;;;;5.07;2.55;;;;;;;-143.48;64.33;78402.84;5043707;28;20068;-36
2022/10/05 05:44:04;;;;;;;4.90;2.40;;;;;;;-143.48;64.65;78406.81;5052921;28;20052;-36
2022/10/05 05:46:37;;;;;;;3.90;2.17;;;;;;;-143.48;64.80;78408.81;5052822;28;20063;-37
2022/10/05 05:49:14;;;;;;;4.35;2.53;;;;;;;-143.48;64.55;78396.91;5053083;28;20036;-36
2022/10/05 05:51:44;;;;;;;5.63;2.30;;;;;;;-143.48;64.57;78396.91;5052791;28;20082;-35
2022/10/05 05:54:35;;;;;;;6.00;2.33;;;;;;;-143.48;64.26;78404.84;5053200;28;20061;-35
2022/10/05 05:57:18;;;;;;;3.25;1.77;;;;;;;-143.48;64.28;78406.81;5053127;28;20095;-36
2022/10/05 05:59:59;;;;;;;4.10;1.77;;;;;;;-143.48;63.98;78396.91;5064623;28;20049;-36
2022/10/05 06:02:32;;;;;;;3.35;2.03;;;;;;;-143.48;63.85;78402.84;5075274;28;20099;-36
2022/10/05 06:05:21;;;;;;;2.92;1.80;;;;;;;-143.48;63.83;78402.84;5076800;28;20042;-37
2022/10/05 06:07:48;;;;;;;4.43;1.60;;;;;;;-143.48;63.74;78404.84;5076211;28;20020;-38
2022/10/05 06:10:56;;;;;;;8.35;1.65;;;;;;;-143.48;63.36;78396.91;5076813;28;20025;-35
2022/10/05 06:13:31;;;;;;;2.42;1.55;;;;;;;-143.48;63.56;78400.88;5037211;28;20040;-36
2022/10/05 06:16:11;;;;;;;2.78;1.58;;;;;;;-143.48;63.45;78385.00;5076370;28;20028;-36
2022/10/05 06:18:39;;;;;;;2.20;1.60;;;;;;;-143.48;63.29;78390.94;5076065;28;20502;-35
2022/10/05 06:21:29;;;;;;;2.92;1.80;;;;;;;-143.48;63.31;78383.00;5076004;28;20078;-37
2022/10/05 06:24:28;;;;;;;3.53;1.60;;;;;;;-143.48;63.30;78375.09;5076520;28;20024;-35
2022/10/05 06:27:11;;;;;;;6.88;1.50;;;;;;;-143.48;63.27;78385.00;5075898;28;20035;-36
2022/10/05 06:29:57;;;;;;;;;;;;;;;-143.48;63.45;78383.00;5076600;28;20107;-36
2022/10/05 06:32:48;;;;;;;3.55;1.60;;;;;;;-143.48;63.05;78377.06;5061766;28;19908;-35
2022/10/05 06:35:53;;;;;;;6.97;1.60;;;;;;;-143.48;63.19;78373.09;5056031;28;20032;-35
2022/10/05 06:38:40;;;;;;;3.28;1.80;;;;;;;-143.48;63.10;78375.09;5065592;28;20040;-35
2022/10/05 06:41:18;;;;;;;3.10;1.67;;;;;;;-143.48;63.50;78369.13;5075517;28;20032;-38
2022/10/05 06:43:55;;;;;;;2.53;1.80;;;;;;;-143.48;63.44;78381.03;5075384;28;20031;-36
2022/10/05 06:46:34;;;;;;;3.17;1.90;;;;;;;-143.48;63.40;78369.13;5075998;28;20120;-36
2022/10/05 06:49:17;;;;;;;2.25;1.70;;;;;;;-143.48;63.88;78375.09;5075325;28;20062;-35
2022/10/05 06:51:48;;;;;;;2.95;1.77;;;;;;;-143.48;63.75;78365.16;5075688;28;20032;-35
2022/10/05 06:54:46;;;;;;;2.90;1.83;;;;;;;-143.48;63.54;78365.16;5075509;28;20025;-35
2022/10/05 06:57:14;;;;;;;5.43;1.77;;;;;;;-143.48;63.55;78369.13;5056642;28;20029;-36
2022/10/05 06:59:53;;;;;;;3.10;1.95;;;;;;;-143.48;63.37;78359.22;5074891;28;20041;-35
2022/10/05 07:02:37;;;;;;;3.65;2.20;;;;;;;-143.48;63.53;78353.28;5075291;28;20116;-35
2022/10/05 07:05:20;;;;;;;4.05;2.10;;;;;;;-143.48;63.40;78365.16;5075449;28;20032;-37
2022/10/05 07:08:04;;;;;;;3.30;2.05;;;;;;;-143.48;63.69;78371.13;5057068;28;20086;-36
2022/10/05 07:10:51;;;;;;;3.95;2.00;;;;;;;-143.48;63.80;78365.16;5073530;28;20533;-36
2022/10/05 07:13:35;;;;;;;5.40;2.00;;;;;;;-143.48;64.07;78369.13;5072659;28;20489;-36
2022/10/05 07:16:11;;;;;;;4.68;2.15;;;;;;;-143.48;64.17;78359.22;5074723;28;20059;-36
2022/10/05 07:18:45;;;;;;;4.43;2.08;;;;;;;-143.48;64.01;78361.19;5075209;28;20028;-36
2022/10/05 07:21:25;;;;;;;4.68;2.13;;;;;;;-143.48;64.09;78363.19;5075018;28;20074;-37
2022/10/05 07:24:04;;;;;;;8.02;2.20;;;;;;;-143.48;64.12;78367.16;5075085;28;20112;-36
2022/10/05 07:26:44;;;;;;;3.38;2.30;;;;;;;-143.48;64.25;78353.28;5073996;28;20032;-36
2022/10/05 07:29:32;;;;;;;3.53;2.40;;;;;;;-143.48;63.84;78357.22;5073610;28;20027;-37
2022/10/05 07:32:12;;;;;;;4.68;2.17;;;;;;;-143.48;64.01;78355.25;5074926;28;20106;-36
2022/10/05 07:37:53;;;;;;;3.00;2.10;;;;;;;-143.48;63.90;78363.19;5074900;28;20036;-35
2022/10/05 07:38:06;;;;;;;4.07;2.17;;;;;;;-143.48;63.95;78353.28;5073242;28;20387;-34
2022/10/05 07:40:39;;;;;;;;;;;;;;;-143.48;64.05;78361.19;5074819;28;20027;-34
2022/10/05 07:43:19;;;;;;;4.05;2.42;;;;;;;-143.48;63.95;78353.28;5074570;28;19916;-34
2022/10/05 07:46:11;;;;;;;6.07;2.50;;;;;;;-143.48;63.93;78345.34;5074663;28;20028;-34
2022/10/05 07:48:59;;;;;;;4.43;2.35;;;;;;;-143.48;63.93;78335.41;5074215;28;20052;-35
2022/10/05 07:51:37;;;;;;;5.28;2.90;;;;;;;-143.48;64.12;78341.38;5074566;28;20024;-35
2022/10/05 07:54:20;;;;;;;3.92;2.30;;;;;;;-143.48;63.88;78337.41;5074268;28;20024;-35
2022/10/05 07:56:52;;;;;;;4.10;2.60;;;;;;;-143.48;64.38;78345.34;5074534;28;20028;-34
2022/10/05 07:59:42;;;;;;;3.95;2.50;;;;;;;-143.48;64.79;78345.34;5074051;28;20049;-34
2022/10/05 08:02:45;;;;;;;5.50;2.75;;;;;;;-143.48;64.45;78331.44;5074376;28;20035;-35
2022/10/05 08:05:30;;;;;;;6.55;2.80;;;;;;;-143.48;64.22;78331.44;5073867;28;20475;-34
2022/10/05 08:08:56;;;;;;;6.70;3.03;;;;;;;-143.48;64.17;78323.53;5073905;28;20016;-37
2022/10/05 08:11:29;;;;;;;8.38;2.90;;;;;;;-143.48;64.34;78325.50;5012196;28;20038;-35
2022/10/05 08:14:05;;;;;;;4.05;2.88;;;;;;;-143.48;63.99;78319.56;5065348;28;20115;-35
2022/10/05 08:16:36;;;;;;;4.72;3.20;;;;;;;-143.48;64.17;78313.59;5073992;28;20074;-35
2022/10/05 08:19:07;;;;;;;5.25;2.90;;;;;;;-143.48;64.12;78317.56;5073997;28;20352;-35
2022/10/05 08:21:42;;;;;;;5.03;2.70;;;;;;;-143.48;64.01;78317.56;5073686;28;20029;-36
2022/10/05 08:24:29;;;;;;;5.82;3.13;;;;;;;-143.48;64.25;78317.56;5073936;28;20040;-36
2022/10/05 08:27:18;;;;;;;5.53;3.00;;;;;;;-143.48;64.04;78309.63;5073910;28;20044;-35
2022/10/05 08:29:55;;;;;;;5.82;3.33;;;;;;;-143.48;63.84;78301.72;5074193;28;20384;-36
2022/10/05 08:32:28;;;;;;;5.88;3.08;;;;;;;-143.48;63.99;78305.66;5073100;28;20115;-36
2022/10/05 08:35:00;;;;;;;4.72;3.03;;;;;;;-143.48;63.61;78291.78;5073572;28;20529;-35
2022/10/05 08:37:31;;;;;;;7.23;3.13;;;;;;;-143.48;63.42;78281.88;5073727;28;20023;-35
2022/10/05 08:40:17;;;;;;;4.40;3.10;;;;;;;-143.48;63.51;78299.72;5073746;28;20020;-35
2022/10/05 08:43:28;;;;;;;5.43;3.08;;;;;;;-143.48;63.15;78285.84;5073013;28;20066;-37
2022/10/05 08:46:27;;;;;;;5.72;3.20;;;;;;;-143.48;63.05;78271.97;5042088;28;20049;-34
2022/10/05 08:49:13;;;;;;;7.05;2.95;;;;;;;-143.48;62.84;78264.03;5072865;28;20024;-35
2022/10/05 08:51:51;;;;;;;4.00;2.92;;;;;;;-143.48;62.78;78277.91;5073061;28;20090;-35
2022/10/05 08:54:38;;;;;;;6.70;3.08;;;;;;;-143.48;63.34;78271.97;5073620;28;20543;-34
2022/10/05 08:57:40;;;;;;;4.53;3.00;;;;;;;-143.48;62.74;78256.09;5073549;28;20386;-34
2022/10/05 09:00:19;;;;;;;6.22;3.10;;;;;;;-143.48;62.97;78264.03;5072981;28;20058;-34
2022/10/05 09:02:53;;;;;;;4.55;3.03;;;;;;;-143.48;63.00;78250.16;5073158;28;20026;-34
2022/10/05 09:05:30;;;;;;;4.50;2.78;;;;;;;-143.48;62.76;78254.09;5073540;28;20036;-35
2022/10/05 09:08:13;;;;;;;8.38;3.08;;;;;;;-143.48;62.43;78246.19;5073489;28;20415;-35
2022/10/05 09:10:44;;;;;;;;;;;;;;;-143.48;62.37;78258.06;5073132;28;20044;-34
2022/10/05 09:13:43;;;;;;;4.43;2.80;;;;;;;-143.48;62.06;78234.28;5073106;28;20382;-37
2022/10/05 09:16:25;;;;;;;5.65;2.85;;;;;;;-143.48;62.26;78230.31;5072755;28;20025;-39
2022/10/05 09:19:13;;;;;;;7.72;2.97;;;;;;;-143.48;61.55;78228.31;5072957;28;20427;-33
2022/10/05 09:21:46;;;;;;;5.18;2.47;;;;;;;-143.48;61.39;78208.50;5073055;28;20028;-35
2022/10/05 09:24:11;;;;;;;4.63;2.47;;;;;;;-143.48;60.88;78202.56;5072895;28;20020;-35
2022/10/05 09:26:39;;;;;;;5.73;2.20;;;;;;;-143.48;59.95;78168.84;5071679;28;20490;-37
2022/10/05 09:29:26;;;;;;;3.95;2.42;;;;;;;-143.48;59.68;78152.97;5072137;28;20274;-37
2022/10/05 09:32:19;;;;;;;7.47;2.40;;;;;;;-143.48;59.72;78166.84;5072694;28;20431;-34
2022/10/05 09:34:59;;;;;;;4.57;2.40;;;;;;;-143.48;59.77;78143.06;5072175;28;20025;-35
2022/10/05 09:37:52;;;;;;;4.80;2.53;;;;;;;-143.48;58.96;78141.06;5075128;28;20360;-34
2022/10/05 09:40:46;;;;;;;3.28;2.65;;;;;;;-143.48;59.22;78139.09;5077337;28;20032;-35
2022/10/05 09:43:21;;;;;;;5.95;2.85;;;;;;;-143.48;58.72;78123.22;5076611;28;20040;-37
2022/10/05 09:46:24;;;;;;;10.43;2.97;;;;;;;-143.48;58.03;78087.53;5076272;28;20040;-36
2022/10/05 09:49:10;;;;;;;4.60;2.58;;;;;;;-143.48;57.21;78057.78;5058629;28;20043;-33
2022/10/05 09:52:17;;;;;;;7.70;2.78;;;;;;;-143.48;57.45;78103.41;5060179;28;20029;-34
2022/10/05 09:55:24;;;;;;;7.78;2.40;;;;;;;-143.48;57.79;78115.28;5076369;28;20028;-34
2022/10/05 09:58:10;;;;;;;3.03;2.03;;;;;;;-143.48;58.14;78103.41;5076439;28;20454;-36
2022/10/05 10:00:41;;;;;;;3.80;2.08;;;;;;;-143.48;57.47;78083.56;5076107;28;20127;-33
2022/10/05 10:03:43;;;;;;;5.85;1.85;;;;;;;-143.48;57.11;78095.47;5075872;28;20025;-35
2022/10/05 10:06:31;;;;;;;8.95;2.22;;;;;;;-143.48;57.55;78095.47;5076237;28;20032;-35
2022/10/05 10:09:25;;;;;;;3.30;1.98;;;;;;;-143.48;57.40;78089.50;5075231;28;20065;-36
2022/10/05 10:12:28;;;;;;;4.18;2.03;;;;;;;-143.48;57.25;78085.53;5076296;28;20387;-35
2022/10/05 10:15:31;;;;;;;7.05;2.60;;;;;;;-143.48;58.39;78119.25;5073566;28;20475;-36
2022/10/05 10:18:24;;;;;;;5.35;2.38;;;;;;;-143.48;58.04;78119.25;5076463;28;20454;-35
2022/10/05 10:21:28;;;;;;;7.05;2.70;;;;;;;-143.48;58.31;78077.63;5076090;28;20059;-35
2022/10/05 10:24:13;;;;;;;;;;;;;;;-143.48;58.50;78087.53;5076168;28;20029;-35
2022/10/05 10:27:07;;;;;;;8.10;2.70;;;;;;;-143.48;57.92;78077.63;5075588;28;19912;-35
2022/10/05 10:29:49;;;;;;;3.85;2.60;;;;;;;-143.48;58.66;78123.22;5076228;28;20438;-35
2022/10/05 10:32:33;;;;;;;6.90;2.70;;;;;;;-143.48;58.80;78123.22;5075915;28;20032;-37
2022/10/05 10:35:08;;;;;;;8.48;2.60;;;;;;;-143.48;58.34;78091.50;5076014;28;20021;-35
2022/10/05 10:37:38;;;;;;;7.47;2.40;;;;;;;-143.48;58.74;78115.28;5074252;28;20471;-35
2022/10/05 10:40:28;;;;;;;7.75;2.53;;;;;;;-143.48;58.37;78111.31;5073808;28;20566;-36
2022/10/05 10:43:39;;;;;;;8.55;2.55;;;;;;;-143.48;58.61;78113.31;5074452;28;20058;-35
2022/10/05 10:46:44;;;;;;;7.03;2.40;;;;;;;-143.48;58.86;78089.50;5072639;28;20041;-35
2022/10/05 10:49:34;;;;;;;10.25;2.80;;;;;;;-143.48;58.65;78109.34;5033870;28;20059;-36
2022/10/05 10:52:02;;;;;;;6.68;2.60;;;;;;;-143.48;59.05;78121.25;5073001;28;20060;-35
2022/10/05 10:55:04;;;;;;;9.80;2.80;;;;;;;-143.48;59.10;78111.31;5074023;28;20028;-36
2022/10/05 10:58:00;;;;;;;4.25;2.72;;;;;;;-143.48;59.33;78121.25;5075707;28;20060;-34
2022/10/05 11:00:53;;;;;;;7.15;3.10;;;;;;;-143.48;59.01;78111.31;5074333;28;20041;-34
2022/10/05 11:03:56;;;;;;;6.47;2.80;;;;;;;-143.48;59.12;78105.38;5074607;28;20028;-34
2022/10/05 11:06:43;;;;;;;8.02;3.15;;;;;;;-143.48;58.94;78103.41;5059036;28;20128;-35
2022/10/05 11:09:42;;;;;;;8.25;3.35;;;;;;;-143.48;59.12;78097.44;5075437;28;20516;-36
2022/10/05 11:12:22;;;;;;;5.68;3.30;;;;;;;-143.48;59.54;78133.13;5075559;28;20024;-34
2022/10/05 11:15:05;;;;;;;7.60;3.45;;;;;;;-143.48;59.28;78095.47;5072946;28;20067;-35
2022/10/05 11:18:10;;;;;;;7.07;2.90;;;;;;;-143.48;59.40;78085.53;5075198;28;20031;-37
2022/10/05 11:21:13;;;;;;;6.85;3.30;;;;;;;-143.48;59.22;78089.50;5075177;28;20031;-34
2022/10/05 11:23:57;;;;;;;6.45;3.00;;;;;;;-143.48;59.17;78073.66;5075044;28;20159;-36
2022/10/05 11:26:40;;;;;;;5.70;3.08;;;;;;;-143.48;58.61;78075.63;5075168;28;20025;-35
2022/10/05 11:29:27;;;;;;;6.47;2.97;;;;;;;-143.48;58.88;78073.66;5054833;28;20038;-35
2022/10/05 11:32:12;;;;;;;9.13;2.90;;;;;;;-143.48;58.37;78063.72;5073892;28;20101;-35
2022/10/05 11:34:46;;;;;;;7.65;3.00;;;;;;;-143.48;59.02;78061.75;5074108;28;20032;-35
2022/10/05 11:40:42;;;;;;;5.75;2.88;;;;;;;-143.48;58.70;78059.75;5102086;22;20058;-71
2022/10/05 11:43:33;;;;;;;6.35;2.85;;;;;;;-143.48;58.45;78057.78;5094155;28;20418;-74
2022/10/05 11:46:34;;;;;;;9.15;3.00;;;;;;;-143.48;58.05;78071.66;5086674;28;20027;-72
2022/10/05 11:49:12;;;;;;;5.88;2.70;;;;;;;-143.48;57.93;78045.88;5093993;28;20043;-72
2022/10/05 11:51:46;;;;;;;5.78;2.65;;;;;;;-143.48;58.07;78061.75;5099549;28;20097;-70
2022/10/05 11:54:24;;;;;;;5.18;2.70;;;;;;;-143.48;57.91;78035.97;5097673;28;20421;-71
2022/10/05 11:56:56;;;;;;;5.93;3.10;;;;;;;-143.48;57.62;78039.94;5097732;28;20042;-71
2022/10/05 12:00:05;;;;;;;6.80;2.53;;;;;;;-143.48;57.22;78024.06;5105469;28;20035;-71
2022/10/05 12:02:46;;;;;;;7.50;2.70;;;;;;;-143.48;57.47;78030.03;5091149;28;20020;-71
2022/10/05 12:05:20;;;;;;;7.65;2.88;;;;;;;-143.48;57.63;78043.91;5094120;28;20486;-70
2022/10/05 12:08:10;;;;;;;8.40;2.97;;;;;;;-143.48;57.51;78020.09;5075271;28;20024;-71
2022/10/05 12:10:50;;;;;;;7.53;2.80;;;;;;;-143.48;57.62;78032.00;5074034;28;20059;-71
2022/10/05 12:13:24;;;;;;;8.02;2.70;;;;;;;-143.48;57.29;78020.09;5074972;28;20028;-71
2022/10/05 12:16:15;;;;;;;7.57;2.80;;;;;;;-143.48;58.03;78012.16;5092768;28;20102;-71
2022/10/05 12:18:47;;;;;;;6.45;2.85;;;;;;;-143.48;58.02;78010.19;5091869;28;20020;-71
2022/10/05 12:21:40;;;;;;;6.28;2.60;;;;;;;-143.48;58.13;78037.94;5091984;28;20020;-69
2022/10/05 12:24:24;;;;;;;7.35;2.92;;;;;;;-143.48;57.74;78039.94;5092110;28;20364;-71
2022/10/05 12:26:57;;;;;;;6.50;2.50;;;;;;;-143.48;58.28;78045.88;5093573;28;20073;-70
2022/10/05 12:29:31;;;;;;;4.57;2.75;;;;;;;-143.48;57.46;78028.03;5075433;28;20035;-71
2022/10/05 12:32:12;;;;;;;5.40;2.72;;;;;;;-143.48;57.74;78016.13;5091613;28;20081;-71